Perdido Key, Florida
Current Conditions -  °F | °C
As of 6:56 PM on Tuesday 25 Nov 2014 (Local Time) from KNPA Reporting Station
Light Rain Light Rain  
Wind Chill: 52°   Ceiling: 11000
Heat Index: 52°   Visibility: 10mi
Dew Point: 41°   Wind: 5mph
Humidity: 66%   Direction: 310°NW
Pressure: 30.13"   Gusts: NA
Location:  30.3544°N, 87.355°W
Report Text: KNPA 260056Z 31004KT 10SM -RA BKN110 11/05 A3013 RMK AO2 RAB07 SLP205 P0000 T01110050 $
Loading
Personal Weather Stations






























Interactive Weather Map New forecast layout! Learn more

10-Day Weather Forecast

Advertisements
Track Severe Weather on mobile